createdAt,value
2019-04-30T00:01:18.447Z,19.95
2019-04-30T00:03:59.373Z,24.30
2019-04-30T00:06:37.700Z,14.98
2019-04-30T00:09:09.850Z,16.15
2019-04-30T00:11:46.061Z,17.07
2019-04-30T00:14:19.616Z,18.37
2019-04-30T00:16:52.423Z,19.02
2019-04-30T00:19:25.876Z,13.55
2019-04-30T00:22:00.407Z,14.13
2019-04-30T00:24:35.452Z,13.30
2019-04-30T00:27:08.591Z,10.48
2019-04-30T00:29:41.482Z,13.58
2019-04-30T00:32:15.972Z,16.95
2019-04-30T00:34:48.980Z,13.98
2019-04-30T00:37:22.940Z,13.70
2019-04-30T00:39:55.853Z,16.48
2019-04-30T00:42:29.780Z,12.75
2019-04-30T00:45:06.702Z,17.75
2019-04-30T00:47:39.455Z,16.42
2019-04-30T00:50:14.848Z,16.97
2019-04-30T00:52:48.108Z,12.93
2019-04-30T00:55:21.043Z,10.30
2019-04-30T00:57:55.506Z,15.30
2019-04-30T01:00:29.792Z,16.35
2019-04-30T01:03:09.351Z,13.70
2019-04-30T01:05:44.493Z,12.30
2019-04-30T01:08:21.180Z,18.70
2019-04-30T01:10:51.649Z,14.43
2019-04-30T01:13:24.472Z,14.60
2019-04-30T01:15:58.809Z,10.25
2019-04-30T01:18:32.188Z,14.68
2019-04-30T01:21:07.848Z,15.35
2019-04-30T01:23:43.098Z,16.23
2019-04-30T01:26:14.632Z,13.22
2019-04-30T01:28:49.390Z,19.20
2019-04-30T01:31:22.517Z,15.50
2019-04-30T01:33:55.321Z,11.83
2019-04-30T01:36:29.381Z,15.43
2019-04-30T01:39:02.422Z,13.55
2019-04-30T01:41:38.662Z,17.87
2019-04-30T01:44:12.129Z,13.40
2019-04-30T01:46:48.271Z,20.57
2019-04-30T01:49:20.386Z,17.30
2019-04-30T01:51:57.331Z,15.70
2019-04-30T01:54:29.212Z,12.70
2019-04-30T01:57:19.913Z,13.30
2019-04-30T02:00:20.349Z,12.73
2019-04-30T02:02:53.337Z,16.48
2019-04-30T02:05:26.120Z,19.45
2019-04-30T02:07:59.064Z,24.00
2019-04-30T02:10:31.989Z,25.15
2019-04-30T02:13:04.914Z,20.30
2019-04-30T02:15:39.031Z,17.27
2019-04-30T02:18:12.210Z,38.15
2019-04-30T02:20:45.122Z,37.05
2019-04-30T02:23:19.599Z,46.33
2019-04-30T02:25:52.974Z,33.25
2019-04-30T02:28:25.806Z,26.00
2019-04-30T02:31:00.417Z,31.60
2019-04-30T02:33:35.150Z,41.50
2019-04-30T02:36:29.832Z,41.13
2019-04-30T02:39:02.727Z,26.30
2019-04-30T02:41:40.870Z,24.72
2019-04-30T02:44:14.640Z,18.42
2019-04-30T02:46:50.495Z,19.48
2019-04-30T02:49:24.237Z,16.95
2019-04-30T02:51:59.504Z,29.98
2019-04-30T02:54:34.740Z,24.12
2019-04-30T02:57:14.107Z,17.45
2019-04-30T03:00:13.257Z,20.65
2019-04-30T03:02:46.271Z,17.32
2019-04-30T03:05:20.563Z,15.10
2019-04-30T03:07:53.721Z,14.87
2019-04-30T03:10:26.691Z,11.73
2019-04-30T03:13:00.145Z,24.00
2019-04-30T03:15:33.105Z,24.02
2019-04-30T03:18:24.800Z,22.02
2019-04-30T03:21:03.640Z,14.63
2019-04-30T03:23:38.983Z,18.37
2019-04-30T03:26:12.973Z,23.10
2019-04-30T03:28:45.622Z,19.27
2019-04-30T03:31:22.587Z,20.40
2019-04-30T03:33:53.027Z,28.07
2019-04-30T03:36:25.873Z,22.22
2019-04-30T03:38:59.994Z,20.68
2019-04-30T03:41:34.365Z,16.80
2019-04-30T03:44:18.568Z,24.75
2019-04-30T03:46:41.684Z,22.73
2019-04-30T03:49:14.640Z,22.10
2019-04-30T03:51:49.699Z,25.80
2019-04-30T03:54:22.047Z,24.98
2019-04-30T03:56:56.578Z,30.23
2019-04-30T03:59:30.211Z,26.07
2019-04-30T04:02:20.944Z,20.05
2019-04-30T04:05:10.049Z,16.82
2019-04-30T04:07:53.033Z,16.30
2019-04-30T04:10:43.364Z,12.63
2019-04-30T04:13:16.257Z,16.02
2019-04-30T04:15:49.995Z,13.50
2019-04-30T04:18:23.172Z,22.55
2019-04-30T04:21:08.805Z,16.15
2019-04-30T04:23:32.832Z,17.07
2019-04-30T04:26:05.114Z,16.05
2019-04-30T04:28:43.119Z,13.10
2019-04-30T04:31:12.651Z,15.28
2019-04-30T04:33:45.489Z,17.35
2019-04-30T04:36:20.011Z,14.15
2019-04-30T04:38:53.214Z,18.25
2019-04-30T04:41:26.127Z,18.40
2019-04-30T04:44:00.344Z,9.65
2019-04-30T04:46:33.358Z,17.77
2019-04-30T04:49:06.216Z,16.65
2019-04-30T04:51:42.208Z,17.87
2019-04-30T04:54:13.605Z,18.57
2019-04-30T04:56:46.515Z,20.55
2019-04-30T04:59:20.154Z,13.60
2019-04-30T05:01:53.199Z,21.60
2019-04-30T05:04:26.132Z,19.57
2019-04-30T05:07:00.086Z,18.35
2019-04-30T05:09:33.153Z,22.55
2019-04-30T05:12:06.088Z,12.80
2019-04-30T05:14:38.982Z,15.05
2019-04-30T05:17:11.791Z,14.55
2019-04-30T05:19:44.749Z,13.58
2019-04-30T05:22:19.025Z,16.87
2019-04-30T05:24:52.341Z,16.37
2019-04-30T05:27:25.370Z,17.37
2019-04-30T05:29:59.582Z,22.87
2019-04-30T05:32:32.571Z,17.87
2019-04-30T05:35:06.057Z,19.65
2019-04-30T05:37:39.054Z,20.82
2019-04-30T05:40:12.901Z,15.48
2019-04-30T05:42:46.099Z,14.30
2019-04-30T05:45:19.384Z,23.52
2019-04-30T05:47:52.446Z,21.60
2019-04-30T05:50:25.388Z,13.22
2019-04-30T05:52:59.211Z,14.65
2019-04-30T05:55:33.743Z,17.75
2019-04-30T05:58:09.182Z,16.52
2019-04-30T06:00:42.792Z,14.13
2019-04-30T06:04:33.650Z,16.25
2019-04-30T06:07:39.644Z,18.57
2019-04-30T06:10:59.767Z,12.68
2019-04-30T06:13:50.575Z,13.10
2019-04-30T06:16:25.700Z,15.72
2019-04-30T06:18:58.726Z,17.75
2019-04-30T06:21:32.006Z,28.12
2019-04-30T06:24:04.810Z,16.77
2019-04-30T06:26:39.394Z,15.88
2019-04-30T06:29:18.943Z,15.05
2019-04-30T06:31:51.155Z,15.40
2019-04-30T06:34:25.270Z,16.10
2019-04-30T06:36:59.582Z,9.68
2019-04-30T06:39:35.937Z,18.35
2019-04-30T06:42:12.783Z,11.48
2019-04-30T06:44:44.341Z,12.30
2019-04-30T06:47:32.350Z,15.83
2019-04-30T06:49:56.465Z,16.80
2019-04-30T06:52:35.309Z,13.88
2019-04-30T06:55:33.683Z,29.90
2019-04-30T06:58:16.839Z,19.00
2019-04-30T07:01:09.505Z,15.72
2019-04-30T07:04:23.229Z,14.58
2019-04-30T07:07:18.298Z,15.80
2019-04-30T07:10:53.102Z,13.95
2019-04-30T07:13:36.823Z,9.65
2019-04-30T07:25:35.867Z,13.15
2019-04-30T07:28:14.655Z,18.77
2019-04-30T07:31:11.625Z,18.35
2019-04-30T07:33:50.658Z,11.78
2019-04-30T07:39:14.877Z,15.08
2019-04-30T07:42:38.214Z,12.07
2019-04-30T07:46:20.602Z,19.55
2019-04-30T07:49:56.521Z,13.22
2019-04-30T07:53:18.692Z,15.15
2019-04-30T07:57:36.186Z,12.58
2019-04-30T08:00:35.676Z,13.13
2019-04-30T08:09:38.370Z,12.47
2019-04-30T09:02:15.974Z,19.95
2019-04-30T09:05:55.047Z,12.82
2019-04-30T09:30:13.211Z,9.23
2019-04-30T09:34:20.735Z,9.28
2019-04-30T09:41:13.116Z,10.28
2019-04-30T09:54:21.982Z,10.90
2019-04-30T10:00:39.350Z,12.28
2019-04-30T10:06:39.834Z,13.75
2019-04-30T10:09:50.636Z,12.05
2019-04-30T10:13:18.421Z,10.48
2019-04-30T10:17:57.623Z,16.85
2019-04-30T10:21:23.696Z,13.85
2019-04-30T10:23:41.504Z,16.77
2019-04-30T10:26:48.404Z,18.73
2019-04-30T10:30:03.226Z,8.20
2019-04-30T10:32:40.920Z,7.87
2019-04-30T10:46:59.636Z,9.43
2019-04-30T10:50:06.873Z,12.50
2019-04-30T11:10:45.668Z,8.05
2019-04-30T11:20:47.057Z,9.00
2019-04-30T11:27:37.318Z,10.78
2019-04-30T11:37:58.407Z,10.18
2019-04-30T11:40:49.389Z,8.58
2019-04-30T11:44:09.297Z,6.90
2019-04-30T11:47:11.807Z,10.43
2019-04-30T11:50:04.299Z,8.68
2019-04-30T11:56:58.818Z,8.85
2019-04-30T12:08:10.982Z,11.63
2019-04-30T12:25:12.074Z,8.70
2019-04-30T12:28:36.947Z,10.38
2019-04-30T12:32:11.095Z,10.50
2019-04-30T12:35:10.050Z,4.78
2019-04-30T12:37:52.089Z,9.98
2019-04-30T12:40:32.397Z,8.15
2019-04-30T12:44:08.693Z,10.55
2019-04-30T12:46:50.690Z,7.45
2019-04-30T12:49:56.207Z,12.33
2019-04-30T12:52:43.648Z,7.90
2019-04-30T12:56:00.137Z,13.13
2019-04-30T12:58:58.029Z,8.33
2019-04-30T13:02:09.005Z,12.30
2019-04-30T13:05:04.051Z,8.58
2019-04-30T13:08:13.052Z,7.97
2019-04-30T13:11:30.829Z,11.73
2019-04-30T13:14:10.621Z,16.25
2019-04-30T13:17:00.189Z,13.55
2019-04-30T13:19:41.071Z,9.65
2019-04-30T13:22:21.101Z,9.28
2019-04-30T13:25:03.083Z,12.33
2019-04-30T13:28:00.499Z,9.73
2019-04-30T13:30:32.604Z,11.20
2019-04-30T13:33:54.676Z,9.83
2019-04-30T13:36:41.137Z,14.15
2019-04-30T13:39:29.261Z,18.48
2019-04-30T13:42:29.507Z,10.55
2019-04-30T13:45:08.949Z,12.65
2019-04-30T13:48:10.672Z,6.03
2019-04-30T13:50:57.326Z,14.90
2019-04-30T13:54:22.373Z,12.63
2019-04-30T13:57:34.503Z,9.25
2019-04-30T14:00:41.628Z,6.67
2019-04-30T14:06:29.759Z,10.85
2019-04-30T14:09:42.751Z,10.80
2019-04-30T14:16:35.305Z,10.50
2019-04-30T14:35:35.063Z,9.63
2019-04-30T14:38:08.990Z,7.15
2019-04-30T14:41:01.003Z,11.38
2019-04-30T14:43:56.022Z,9.63
2019-04-30T14:47:12.380Z,9.13
2019-04-30T14:50:18.587Z,17.50
2019-04-30T14:53:30.611Z,34.78
2019-04-30T14:57:10.845Z,8.88
2019-04-30T14:59:39.017Z,12.78
2019-04-30T15:06:06.408Z,10.32
2019-04-30T15:08:55.732Z,18.55
2019-04-30T15:11:46.389Z,11.78
2019-04-30T15:14:41.018Z,5.05
2019-04-30T15:17:39.221Z,9.40
2019-04-30T15:20:14.530Z,10.35
2019-04-30T15:22:58.720Z,6.47
2019-04-30T15:25:38.760Z,6.55
2019-04-30T15:28:14.907Z,9.78
2019-04-30T15:30:58.777Z,4.35
2019-04-30T15:34:13.206Z,9.05
2019-04-30T15:36:59.018Z,9.28
2019-04-30T15:39:48.986Z,7.10
2019-04-30T15:42:55.089Z,7.45
2019-04-30T15:45:39.661Z,8.98
2019-04-30T15:48:40.795Z,10.23
2019-04-30T15:51:17.962Z,15.48
2019-04-30T15:53:52.648Z,6.35
2019-04-30T15:56:35.361Z,5.97
2019-04-30T15:59:28.860Z,18.17
2019-04-30T16:02:12.872Z,5.50
2019-04-30T16:05:11.863Z,12.10
2019-04-30T16:08:09.588Z,4.90
2019-04-30T16:11:00.470Z,7.40
2019-04-30T16:13:39.536Z,5.50
2019-04-30T16:16:13.298Z,6.85
2019-04-30T16:18:50.215Z,6.85
2019-04-30T16:21:23.771Z,12.13
2019-04-30T16:24:05.781Z,5.47
2019-04-30T16:26:49.930Z,7.90
2019-04-30T16:29:30.997Z,10.98
2019-04-30T16:32:04.781Z,8.78
2019-04-30T16:34:38.864Z,27.85
2019-04-30T16:37:19.996Z,18.27
2019-04-30T16:40:21.962Z,14.90
2019-04-30T16:42:58.209Z,11.28
2019-04-30T16:45:41.559Z,6.80
2019-04-30T16:48:14.904Z,4.55
2019-04-30T16:50:51.132Z,5.25
2019-04-30T16:53:25.567Z,8.75
2019-04-30T16:55:58.687Z,11.40
2019-04-30T16:58:50.413Z,8.60
2019-04-30T17:01:23.678Z,10.85
2019-04-30T17:05:11.175Z,10.78
2019-04-30T17:07:50.623Z,5.20
2019-04-30T17:11:01.359Z,8.35
2019-04-30T17:13:51.426Z,8.13
2019-04-30T17:16:26.651Z,12.00
2019-04-30T17:19:04.625Z,8.13
2019-04-30T17:21:42.678Z,9.23
2019-04-30T17:24:21.882Z,10.30
2019-04-30T17:27:19.256Z,8.65
2019-04-30T17:29:45.819Z,11.53
2019-04-30T17:32:19.089Z,11.88
2019-04-30T17:34:55.422Z,14.10
2019-04-30T17:37:31.547Z,7.67
2019-04-30T17:40:14.022Z,8.30
2019-04-30T17:42:47.533Z,6.97
2019-04-30T17:45:23.686Z,10.50
2019-04-30T17:47:58.571Z,10.78
2019-04-30T17:50:32.352Z,6.95
2019-04-30T17:53:09.076Z,9.35
2019-04-30T17:55:44.960Z,4.87
2019-04-30T17:58:20.688Z,7.50
2019-04-30T18:00:56.505Z,6.20
2019-04-30T18:03:30.121Z,8.48
2019-04-30T18:06:09.025Z,17.65
2019-04-30T18:08:43.899Z,23.22
2019-04-30T18:11:20.080Z,10.85
2019-04-30T18:13:53.738Z,7.05
2019-04-30T18:16:29.950Z,10.60
2019-04-30T18:19:10.047Z,10.90
2019-04-30T18:21:51.086Z,8.78
2019-04-30T18:24:46.298Z,5.75
2019-04-30T18:27:29.646Z,19.10
2019-04-30T18:30:12.993Z,17.30
2019-04-30T18:34:09.397Z,22.25
2019-04-30T18:37:21.401Z,18.40
2019-04-30T18:47:37.513Z,9.85
2019-04-30T18:50:29.815Z,13.70
2019-04-30T18:53:28.441Z,9.05
2019-04-30T18:56:19.150Z,12.05
2019-04-30T18:59:15.009Z,17.87
2019-04-30T19:02:19.146Z,11.75
2019-04-30T19:04:55.113Z,13.03
2019-04-30T19:07:37.022Z,10.00
2019-04-30T19:11:00.514Z,13.38
2019-04-30T19:14:24.602Z,11.75
2019-04-30T19:18:23.438Z,13.80
2019-04-30T19:24:56.084Z,13.80
2019-04-30T19:27:22.526Z,16.12
2019-04-30T19:29:59.511Z,9.85
2019-04-30T19:32:39.081Z,14.30
2019-04-30T19:35:15.858Z,13.53
2019-04-30T19:37:52.000Z,14.05
2019-04-30T19:40:28.640Z,10.55
2019-04-30T19:43:01.870Z,13.80
2019-04-30T19:45:36.805Z,12.35
2019-04-30T19:48:10.084Z,9.98
2019-04-30T19:50:43.184Z,20.37
2019-04-30T19:53:19.936Z,10.23
2019-04-30T19:55:51.955Z,15.72
2019-04-30T19:58:44.878Z,11.03
2019-04-30T20:01:01.709Z,8.45
2019-04-30T20:03:36.409Z,13.43
2019-04-30T20:06:09.939Z,13.65
2019-04-30T20:08:45.900Z,14.43
2019-04-30T20:11:18.912Z,8.75
2019-04-30T20:13:54.633Z,10.82
2019-04-30T20:16:27.723Z,12.68
2019-04-30T20:19:03.859Z,13.90
2019-04-30T20:21:48.200Z,13.85
2019-04-30T20:24:14.778Z,10.70
2019-04-30T20:26:50.221Z,14.68
2019-04-30T20:29:22.901Z,10.58
2019-04-30T20:31:56.015Z,10.53
2019-04-30T20:34:29.404Z,12.03
2019-04-30T20:37:02.681Z,14.47
2019-04-30T20:40:00.539Z,11.35
2019-04-30T20:42:33.847Z,14.68
2019-04-30T20:45:09.071Z,10.00
2019-04-30T20:47:42.822Z,14.68
2019-04-30T20:50:16.327Z,9.78
2019-04-30T20:52:49.601Z,17.92
2019-04-30T20:55:24.256Z,11.43
2019-04-30T20:57:59.348Z,13.00
2019-04-30T21:00:31.977Z,17.07
2019-04-30T21:03:05.272Z,12.25
2019-04-30T21:05:38.637Z,10.18
2019-04-30T21:08:11.806Z,17.87
2019-04-30T21:10:45.152Z,11.53
2019-04-30T21:13:19.360Z,11.38
2019-04-30T21:15:55.327Z,13.00
2019-04-30T21:18:30.528Z,18.40
2019-04-30T21:21:03.165Z,12.60
2019-04-30T21:23:36.457Z,12.35
2019-04-30T21:26:09.468Z,13.18
2019-04-30T21:28:43.307Z,14.68
2019-04-30T21:31:35.650Z,12.45
2019-04-30T21:34:15.545Z,12.58
2019-04-30T21:36:49.604Z,9.28
2019-04-30T21:39:22.795Z,10.72
2019-04-30T21:41:55.992Z,11.22
2019-04-30T21:44:29.375Z,10.30
2019-04-30T21:47:02.711Z,12.55
2019-04-30T21:49:36.288Z,13.95
2019-04-30T21:52:13.590Z,12.82
2019-04-30T21:54:48.679Z,16.93
2019-04-30T21:57:39.168Z,11.25
2019-04-30T22:00:18.523Z,17.15
2019-04-30T22:02:54.201Z,9.30
2019-04-30T22:05:31.804Z,15.78
2019-04-30T22:08:11.949Z,13.30
2019-04-30T22:10:55.564Z,13.25
2019-04-30T22:13:34.628Z,13.18
2019-04-30T22:16:10.421Z,16.97
2019-04-30T22:18:46.857Z,13.70
2019-04-30T22:21:30.449Z,14.85
2019-04-30T22:24:06.105Z,10.28
2019-04-30T22:26:41.029Z,9.73
2019-04-30T22:29:38.426Z,13.03
2019-04-30T22:32:00.447Z,15.88
2019-04-30T22:34:34.296Z,16.73
2019-04-30T22:37:08.875Z,12.75
2019-04-30T22:39:51.847Z,20.80
2019-04-30T22:42:42.331Z,19.42
2019-04-30T22:45:26.679Z,13.55
2019-04-30T22:48:00.139Z,11.48
2019-04-30T22:50:34.526Z,11.80
2019-04-30T22:53:07.993Z,13.30
2019-04-30T22:55:41.308Z,11.57
2019-04-30T22:58:15.153Z,13.88
2019-04-30T23:00:48.558Z,16.87
2019-04-30T23:03:26.002Z,18.60
2019-04-30T23:06:03.653Z,11.73
2019-04-30T23:08:37.268Z,11.10
2019-04-30T23:11:11.167Z,14.18
2019-04-30T23:13:47.994Z,14.23
2019-04-30T23:16:24.096Z,9.35
2019-04-30T23:19:02.675Z,18.02
2019-04-30T23:24:54.212Z,12.25
2019-04-30T23:27:29.013Z,11.90
2019-04-30T23:30:04.857Z,11.53
2019-04-30T23:32:54.213Z,12.90
2019-04-30T23:35:31.077Z,9.53
2019-04-30T23:38:17.506Z,12.18
2019-04-30T23:40:56.558Z,10.05
2019-04-30T23:43:35.725Z,18.32
2019-04-30T23:46:09.189Z,15.18
2019-04-30T23:48:48.518Z,17.50
2019-04-30T23:54:42.239Z,10.38
2019-04-30T23:57:16.534Z,12.55
2019-04-30T23:59:52.996Z,10.80
